createdAt,value
2022-10-18T00:00:02.080Z,1023.73
2022-10-18T00:01:08.727Z,1023.79
2022-10-18T00:02:01.163Z,1023.77
2022-10-18T00:03:01.111Z,1023.77
2022-10-18T00:04:01.711Z,1023.78
2022-10-18T00:05:01.205Z,1023.77
2022-10-18T00:06:12.085Z,1023.77
2022-10-18T00:07:01.147Z,1023.77
2022-10-18T00:08:01.189Z,1023.79
2022-10-18T00:09:01.154Z,1023.78
2022-10-18T00:10:01.081Z,1023.8
2022-10-18T00:11:14.122Z,1023.82
2022-10-18T00:12:01.070Z,1023.79
2022-10-18T00:13:01.167Z,1023.84
2022-10-18T00:14:01.109Z,1023.83
2022-10-18T00:15:01.114Z,1023.92
2022-10-18T00:16:16.466Z,1023.91
2022-10-18T00:17:02.145Z,1023.9
2022-10-18T00:18:01.167Z,1023.9
2022-10-18T00:19:01.126Z,1023.93
2022-10-18T00:20:01.123Z,1023.93
2022-10-18T00:21:01.828Z,1023.91
2022-10-18T00:22:01.441Z,1023.98
2022-10-18T00:23:01.221Z,1023.94
2022-10-18T00:24:02.586Z,1023.91
2022-10-18T00:25:01.971Z,1023.9
2022-10-18T00:26:01.548Z,1023.92
2022-10-18T00:27:01.057Z,1023.97
2022-10-18T00:28:01.071Z,1023.94
2022-10-18T00:29:01.142Z,1023.99
2022-10-18T00:30:01.087Z,1024.01
2022-10-18T00:31:01.170Z,1024
2022-10-18T00:32:01.519Z,1024
2022-10-18T00:33:01.101Z,1023.98
2022-10-18T00:34:01.064Z,1024.03
2022-10-18T00:35:01.123Z,1024
2022-10-18T00:36:01.128Z,1023.95
2022-10-18T00:37:01.133Z,1023.98
2022-10-18T00:38:01.061Z,1023.99
2022-10-18T00:39:01.144Z,1023.95
2022-10-18T00:40:01.145Z,1024.03
2022-10-18T00:41:01.057Z,1024.04
2022-10-18T00:42:01.180Z,1024.04
2022-10-18T00:43:01.472Z,1024.06
2022-10-18T00:44:01.449Z,1024.01
2022-10-18T00:45:01.082Z,1024.03
2022-10-18T00:46:01.067Z,1023.99
2022-10-18T00:47:01.144Z,1024.01
2022-10-18T00:48:01.123Z,1024
2022-10-18T00:49:01.106Z,1024
2022-10-18T00:50:01.437Z,1023.99
2022-10-18T00:51:01.123Z,1024
2022-10-18T00:52:01.126Z,1024
2022-10-18T00:53:01.279Z,1024.03
2022-10-18T00:54:01.951Z,1024
2022-10-18T00:55:02.178Z,1024.06
2022-10-18T00:56:01.043Z,1024.07
2022-10-18T00:57:01.098Z,1024.09
2022-10-18T00:58:01.743Z,1024.07
2022-10-18T00:59:01.423Z,1024.05
2022-10-18T01:00:02.129Z,1024.07
2022-10-18T01:01:01.190Z,1024.06
2022-10-18T01:02:02.018Z,1024.05
2022-10-18T01:03:03.949Z,1023.99
2022-10-18T01:04:03.907Z,1024.01
2022-10-18T01:05:01.059Z,1024
2022-10-18T01:06:01.159Z,1023.97
2022-10-18T01:07:01.143Z,1024.02
2022-10-18T01:08:01.137Z,1024.01
2022-10-18T01:09:01.178Z,1023.98
2022-10-18T01:10:01.049Z,1024.02
2022-10-18T01:11:01.154Z,1024.01
2022-10-18T01:12:01.158Z,1024.03
2022-10-18T01:13:01.985Z,1024.05
2022-10-18T01:14:01.485Z,1024.05
2022-10-18T01:15:01.731Z,1024.06
2022-10-18T01:16:01.168Z,1024.05
2022-10-18T01:17:01.388Z,1024.05
2022-10-18T01:18:01.412Z,1024.08
2022-10-18T01:19:01.722Z,1024.05
2022-10-18T01:20:01.701Z,1024.08
2022-10-18T01:21:01.788Z,1024.08
2022-10-18T01:22:01.800Z,1024.04
2022-10-18T01:23:01.588Z,1024.04
2022-10-18T01:24:01.717Z,1024.04
2022-10-18T01:26:01.138Z,1024.06
2022-10-18T01:27:01.445Z,1024.08
2022-10-18T01:28:01.940Z,1024.03
2022-10-18T01:29:01.135Z,1024.06
2022-10-18T01:30:00.906Z,1024.05
2022-10-18T01:31:01.060Z,1024.06
2022-10-18T01:32:01.075Z,1024.04
2022-10-18T01:33:01.044Z,1024.06
2022-10-18T01:35:00.727Z,1024.07
2022-10-18T01:36:00.632Z,1024.06
2022-10-18T01:37:02.178Z,1024.03
2022-10-18T01:38:01.114Z,1024.04
2022-10-18T01:39:01.826Z,1024.05
2022-10-18T01:40:02.347Z,1024.07
2022-10-18T01:41:01.440Z,1024.06
2022-10-18T01:42:05.908Z,1024.02
2022-10-18T01:43:01.634Z,1024.05
2022-10-18T01:44:01.761Z,1024
2022-10-18T01:45:01.483Z,1024.03
2022-10-18T01:46:01.159Z,1024.01
2022-10-18T01:47:08.948Z,1024.02
2022-10-18T01:48:01.124Z,1024.01
2022-10-18T01:49:01.259Z,1024.02
2022-10-18T01:50:01.995Z,1024.04
2022-10-18T01:51:02.016Z,1024.04
2022-10-18T01:52:10.937Z,1024.02
2022-10-18T01:53:01.509Z,1024
2022-10-18T01:54:01.535Z,1024.01
2022-10-18T01:55:01.512Z,1024.01
2022-10-18T01:56:01.148Z,1024
2022-10-18T01:57:13.549Z,1023.96
2022-10-18T01:58:01.329Z,1024.01
2022-10-18T01:59:00.934Z,1024.04
2022-10-18T02:00:01.152Z,1024
2022-10-18T02:01:01.275Z,1024
2022-10-18T02:02:15.607Z,1024
2022-10-18T02:03:02.103Z,1024.01
2022-10-18T02:04:01.493Z,1023.98
2022-10-18T02:05:01.053Z,1023.99
2022-10-18T02:06:01.085Z,1024.04
2022-10-18T02:07:01.103Z,1024.01
2022-10-18T02:08:12.370Z,1024.01
2022-10-18T02:09:01.771Z,1023.99
2022-10-18T02:10:02.109Z,1024.05
2022-10-18T02:11:01.771Z,1023.98
2022-10-18T02:12:02.220Z,1024.03
2022-10-18T02:13:02.057Z,1023.98
2022-10-18T02:14:02.054Z,1023.99
2022-10-18T02:15:01.190Z,1023.95
2022-10-18T02:16:01.962Z,1024.01
2022-10-18T02:17:01.042Z,1023.95
2022-10-18T02:18:01.076Z,1023.92
2022-10-18T02:19:01.116Z,1023.95
2022-10-18T02:20:01.309Z,1023.91
2022-10-18T02:21:01.154Z,1024
2022-10-18T02:22:01.152Z,1024
2022-10-18T02:23:04.381Z,1024.02
2022-10-18T02:24:01.158Z,1024.02
2022-10-18T02:25:01.168Z,1024.03
2022-10-18T02:26:01.040Z,1024.01
2022-10-18T02:27:01.161Z,1024
2022-10-18T02:28:01.180Z,1024
2022-10-18T02:29:01.490Z,1023.98
2022-10-18T02:30:01.027Z,1024.02
2022-10-18T02:31:01.558Z,1024.01
2022-10-18T02:32:02.066Z,1024.04
2022-10-18T02:33:01.822Z,1023.99
2022-10-18T02:34:04.150Z,1024.05
2022-10-18T02:35:01.930Z,1024.01
2022-10-18T02:36:01.076Z,1024.03
2022-10-18T02:37:01.086Z,1024.01
2022-10-18T02:38:01.482Z,1024.02
2022-10-18T02:39:01.557Z,1024.01
2022-10-18T02:40:01.181Z,1024
2022-10-18T02:41:03.937Z,1024.04
2022-10-18T02:42:01.124Z,1023.96
2022-10-18T02:43:01.053Z,1024
2022-10-18T02:44:01.217Z,1024.01
2022-10-18T02:45:01.136Z,1023.98
2022-10-18T02:46:01.144Z,1024.06
2022-10-18T02:47:01.154Z,1024.04
2022-10-18T02:48:01.297Z,1024.02
2022-10-18T02:49:01.056Z,1024.05
2022-10-18T02:50:01.096Z,1024.05
2022-10-18T02:51:01.801Z,1024.06
2022-10-18T02:52:01.774Z,1024.05
2022-10-18T02:53:01.481Z,1024.08
2022-10-18T02:54:01.624Z,1024.07
2022-10-18T02:55:01.284Z,1024.01
2022-10-18T02:56:02.113Z,1024.07
2022-10-18T02:57:02.189Z,1024.05
2022-10-18T02:58:01.156Z,1024.08
2022-10-18T02:59:01.865Z,1024.11
2022-10-18T03:00:01.167Z,1024.09
2022-10-18T03:01:02.479Z,1024.11
2022-10-18T03:02:01.538Z,1024.13
2022-10-18T03:03:01.538Z,1024.13
2022-10-18T03:04:01.537Z,1024.22
2022-10-18T03:05:01.284Z,1024.29
2022-10-18T03:06:01.242Z,1024.28
2022-10-18T03:07:01.090Z,1024.31
2022-10-18T03:08:01.089Z,1024.33
2022-10-18T03:09:02.314Z,1024.35
2022-10-18T03:10:01.491Z,1024.31
2022-10-18T03:11:01.349Z,1024.33
2022-10-18T03:12:01.354Z,1024.38
2022-10-18T03:13:01.133Z,1024.4
2022-10-18T03:14:01.133Z,1024.45
2022-10-18T03:15:01.920Z,1024.44
2022-10-18T03:16:01.150Z,1024.45
2022-10-18T03:17:01.164Z,1024.44
2022-10-18T03:18:01.159Z,1024.38
2022-10-18T03:19:01.867Z,1024.43
2022-10-18T03:20:01.338Z,1024.43
2022-10-18T03:21:01.188Z,1024.46
2022-10-18T03:22:01.359Z,1024.42
2022-10-18T03:23:02.917Z,1024.45
2022-10-18T03:24:01.104Z,1024.47
2022-10-18T03:25:01.224Z,1024.48
2022-10-18T03:26:01.116Z,1024.45
2022-10-18T03:27:01.070Z,1024.45
2022-10-18T03:28:06.079Z,1024.45
2022-10-18T03:29:01.551Z,1024.41
2022-10-18T03:30:01.151Z,1024.43
2022-10-18T03:31:01.126Z,1024.42
2022-10-18T03:32:00.832Z,1024.44
2022-10-18T03:33:09.731Z,1024.5
2022-10-18T03:34:01.459Z,1024.47
2022-10-18T03:35:01.692Z,1024.47
2022-10-18T03:36:01.430Z,1024.49
2022-10-18T03:37:04.665Z,1024.5
2022-10-18T03:38:11.935Z,1024.49
2022-10-18T03:39:01.101Z,1024.51
2022-10-18T03:40:01.122Z,1024.45
2022-10-18T03:41:01.047Z,1024.49
2022-10-18T03:42:01.108Z,1024.43
2022-10-18T03:43:15.252Z,1024.43
2022-10-18T03:44:00.879Z,1024.41
2022-10-18T03:45:01.508Z,1024.39
2022-10-18T03:46:01.573Z,1024.42
2022-10-18T03:47:02.238Z,1024.43
2022-10-18T03:48:01.146Z,1024.43
2022-10-18T03:49:01.141Z,1024.43
2022-10-18T03:50:01.047Z,1024.42
2022-10-18T03:51:00.740Z,1024.46
2022-10-18T03:52:00.473Z,1024.48
2022-10-18T03:53:00.154Z,1024.46
2022-10-18T03:53:59.777Z,1024.5
2022-10-18T03:55:01.371Z,1024.54
2022-10-18T03:56:04.478Z,1024.51
2022-10-18T03:57:01.095Z,1024.49
2022-10-18T03:58:01.093Z,1024.49
2022-10-18T03:59:01.111Z,1024.49
2022-10-18T04:00:01.118Z,1024.47
2022-10-18T04:01:01.120Z,1024.5
2022-10-18T04:02:01.153Z,1024.5
2022-10-18T04:03:01.132Z,1024.49
2022-10-18T04:04:01.375Z,1024.52
2022-10-18T04:05:01.140Z,1024.49
2022-10-18T04:06:01.066Z,1024.48
2022-10-18T04:07:01.128Z,1024.52
2022-10-18T04:08:01.063Z,1024.51
2022-10-18T04:09:02.376Z,1024.49
2022-10-18T04:10:02.897Z,1024.51
2022-10-18T04:11:01.912Z,1024.53
2022-10-18T04:12:01.090Z,1024.52
2022-10-18T04:13:01.521Z,1024.5
2022-10-18T04:14:01.436Z,1024.5
2022-10-18T04:15:02.127Z,1024.5
2022-10-18T04:16:02.134Z,1024.46
2022-10-18T04:17:01.251Z,1024.48
2022-10-18T04:18:01.128Z,1024.48
2022-10-18T04:19:01.137Z,1024.48
2022-10-18T04:20:01.136Z,1024.45
2022-10-18T04:21:01.161Z,1024.44
2022-10-18T04:22:00.974Z,1024.43
2022-10-18T04:23:01.057Z,1024.47
2022-10-18T04:24:01.452Z,1024.49
2022-10-18T04:25:01.043Z,1024.57
2022-10-18T04:26:01.085Z,1024.5
2022-10-18T04:27:01.093Z,1024.52
2022-10-18T04:28:01.091Z,1024.52
2022-10-18T04:29:01.835Z,1024.49
2022-10-18T04:30:01.052Z,1024.51
2022-10-18T04:31:01.061Z,1024.45
2022-10-18T04:32:01.340Z,1024.45
2022-10-18T04:33:01.347Z,1024.49
2022-10-18T04:34:01.041Z,1024.42
2022-10-18T04:35:00.602Z,1024.45
2022-10-18T04:36:00.316Z,1024.45
2022-10-18T04:37:00.017Z,1024.43
2022-10-18T04:37:59.644Z,1024.42
2022-10-18T04:39:01.472Z,1024.42
2022-10-18T04:40:01.072Z,1024.43
2022-10-18T04:41:01.070Z,1024.42
2022-10-18T04:42:01.065Z,1024.41
2022-10-18T04:43:01.433Z,1024.41
2022-10-18T04:44:01.050Z,1024.4
2022-10-18T04:45:01.101Z,1024.43
2022-10-18T04:46:01.108Z,1024.4
2022-10-18T04:47:01.128Z,1024.38
2022-10-18T04:48:01.108Z,1024.45
2022-10-18T04:49:01.466Z,1024.42
2022-10-18T04:50:01.472Z,1024.38
2022-10-18T04:51:02.147Z,1024.38
2022-10-18T04:52:02.615Z,1024.43
2022-10-18T04:53:01.170Z,1024.41
2022-10-18T04:54:01.163Z,1024.45
2022-10-18T04:55:01.059Z,1024.41
2022-10-18T04:56:01.057Z,1024.35
2022-10-18T04:57:01.071Z,1024.33
2022-10-18T04:58:01.083Z,1024.32
2022-10-18T04:59:01.461Z,1024.33
2022-10-18T05:00:01.151Z,1024.3
2022-10-18T05:01:01.101Z,1024.27
2022-10-18T05:02:01.206Z,1024.29
2022-10-18T05:03:01.107Z,1024.28
2022-10-18T05:04:00.829Z,1024.26
2022-10-18T05:05:02.067Z,1024.26
2022-10-18T05:06:03.370Z,1024.24
2022-10-18T05:07:01.309Z,1024.24
2022-10-18T05:08:02.909Z,1024.21
2022-10-18T05:09:04.038Z,1024.27
2022-10-18T05:10:01.751Z,1024.27
2022-10-18T05:11:01.523Z,1024.28
2022-10-18T05:12:02.079Z,1024.25
2022-10-18T05:13:02.106Z,1024.2
2022-10-18T05:14:08.297Z,1024.24
2022-10-18T05:15:01.139Z,1024.26
2022-10-18T05:16:01.174Z,1024.25
2022-10-18T05:17:01.787Z,1024.25
2022-10-18T05:18:01.056Z,1024.21
2022-10-18T05:19:11.827Z,1024.21
2022-10-18T05:20:02.396Z,1024.24
2022-10-18T05:21:02.506Z,1024.22
2022-10-18T05:22:02.027Z,1024.22
2022-10-18T05:23:01.678Z,1024.22
2022-10-18T05:24:15.731Z,1024.22
2022-10-18T05:25:02.369Z,1024.22
2022-10-18T05:26:01.397Z,1024.25
2022-10-18T05:27:01.414Z,1024.27
2022-10-18T05:28:10.561Z,1024.3
2022-10-18T05:29:16.851Z,1024.29
2022-10-18T05:30:04.603Z,1024.3
2022-10-18T05:31:01.094Z,1024.32
2022-10-18T05:32:01.107Z,1024.34
2022-10-18T05:33:01.385Z,1024.36
2022-10-18T05:34:01.126Z,1024.35
2022-10-18T05:35:02.236Z,1024.32
2022-10-18T05:36:01.142Z,1024.31
2022-10-18T05:37:01.150Z,1024.26
2022-10-18T05:38:01.155Z,1024.28
2022-10-18T05:39:04.143Z,1024.24
2022-10-18T05:40:01.168Z,1024.28
2022-10-18T05:41:01.164Z,1024.3
2022-10-18T05:42:01.168Z,1024.28
2022-10-18T05:43:01.354Z,1024.3
2022-10-18T05:44:01.443Z,1024.31
2022-10-18T05:45:01.941Z,1024.3
2022-10-18T05:46:01.698Z,1024.31
2022-10-18T05:47:02.105Z,1024.35
2022-10-18T05:48:01.419Z,1024.36
2022-10-18T05:49:01.059Z,1024.38
2022-10-18T05:50:01.220Z,1024.4
2022-10-18T05:51:01.455Z,1024.44
2022-10-18T05:52:00.707Z,1024.4
2022-10-18T05:53:11.920Z,1024.38
2022-10-18T05:54:02.657Z,1024.41
2022-10-18T05:55:02.279Z,1024.42
2022-10-18T05:56:02.196Z,1024.39
2022-10-18T05:57:01.151Z,1024.35
2022-10-18T05:58:01.064Z,1024.37
2022-10-18T05:59:01.145Z,1024.36
2022-10-18T06:00:01.039Z,1024.38
2022-10-18T06:01:01.132Z,1024.37
2022-10-18T06:02:01.083Z,1024.35
2022-10-18T06:03:01.151Z,1024.33
2022-10-18T06:04:01.477Z,1024.3
2022-10-18T06:05:00.746Z,1024.31
2022-10-18T06:06:00.385Z,1024.37
2022-10-18T06:06:59.980Z,1024.35
2022-10-18T06:07:59.677Z,1024.38
2022-10-18T06:09:01.317Z,1024.38
2022-10-18T06:10:00.943Z,1024.38
2022-10-18T06:11:00.625Z,1024.37
2022-10-18T06:12:00.234Z,1024.36
2022-10-18T06:12:59.907Z,1024.39
2022-10-18T06:13:59.461Z,1024.34
2022-10-18T06:15:01.064Z,1024.39
2022-10-18T06:16:01.063Z,1024.4
2022-10-18T06:17:01.077Z,1024.42
2022-10-18T06:18:01.120Z,1024.4
2022-10-18T06:19:01.095Z,1024.39
2022-10-18T06:20:00.984Z,1024.42
2022-10-18T06:21:02.177Z,1024.42
2022-10-18T06:22:01.557Z,1024.37
2022-10-18T06:23:01.171Z,1024.32
2022-10-18T06:24:01.125Z,1024.34
2022-10-18T06:25:01.150Z,1024.31
2022-10-18T06:26:01.146Z,1024.33
2022-10-18T06:27:01.128Z,1024.33
2022-10-18T06:28:00.830Z,1024.32
2022-10-18T06:29:00.597Z,1024.34
2022-10-18T06:30:00.232Z,1024.32
2022-10-18T06:30:59.938Z,1024.36
2022-10-18T06:31:59.550Z,1024.3
2022-10-18T06:33:01.765Z,1024.33
2022-10-18T06:34:01.082Z,1024.31
2022-10-18T06:35:01.190Z,1024.35
2022-10-18T06:36:01.080Z,1024.28
2022-10-18T06:37:01.430Z,1024.31
2022-10-18T06:38:02.273Z,1024.29
2022-10-18T06:39:01.312Z,1024.31
2022-10-18T06:40:01.177Z,1024.28
2022-10-18T06:41:01.144Z,1024.26
2022-10-18T06:42:01.136Z,1024.24
2022-10-18T06:43:19.645Z,1024.24
2022-10-18T06:44:01.535Z,1024.28
2022-10-18T06:45:02.882Z,1024.29
2022-10-18T06:46:01.983Z,1024.29
2022-10-18T06:47:01.039Z,1024.32
2022-10-18T06:48:02.014Z,1024.35
2022-10-18T06:49:01.086Z,1024.41
2022-10-18T06:50:05.382Z,1024.37
2022-10-18T06:51:01.121Z,1024.34
2022-10-18T06:52:01.103Z,1024.32
2022-10-18T06:53:01.052Z,1024.36
2022-10-18T06:54:16.873Z,1024.36
2022-10-18T06:55:09.795Z,1024.4
2022-10-18T06:56:01.411Z,1024.41
2022-10-18T06:57:01.514Z,1024.46
2022-10-18T06:58:01.246Z,1024.38
2022-10-18T06:59:01.144Z,1024.4
2022-10-18T07:00:13.506Z,1024.36
2022-10-18T07:01:01.975Z,1024.4
2022-10-18T07:02:01.263Z,1024.37
2022-10-18T07:03:02.494Z,1024.39
2022-10-18T07:04:02.607Z,1024.47
2022-10-18T07:05:16.679Z,1024.45
2022-10-18T07:06:02.315Z,1024.44
2022-10-18T07:07:01.416Z,1024.44
2022-10-18T07:08:01.947Z,1024.48
2022-10-18T07:09:02.121Z,1024.46
2022-10-18T07:10:01.109Z,1024.49
2022-10-18T07:11:01.054Z,1024.49
2022-10-18T07:12:01.193Z,1024.52
2022-10-18T07:13:26.986Z,1024.54
2022-10-18T07:14:01.517Z,1024.54
2022-10-18T07:15:05.544Z,1024.58
2022-10-18T07:16:01.466Z,1024.58
2022-10-18T07:17:01.080Z,1024.61
2022-10-18T07:18:01.451Z,1024.61
2022-10-18T07:19:01.097Z,1024.62
2022-10-18T07:20:01.084Z,1024.61
2022-10-18T07:21:01.469Z,1024.6
2022-10-18T07:22:01.480Z,1024.57
2022-10-18T07:23:01.089Z,1024.53
2022-10-18T07:24:01.199Z,1024.52
2022-10-18T07:25:01.112Z,1024.53
2022-10-18T07:26:01.128Z,1024.51
2022-10-18T07:27:01.174Z,1024.47
2022-10-18T07:28:01.139Z,1024.52
2022-10-18T07:29:01.624Z,1024.48
2022-10-18T07:30:01.154Z,1024.45
2022-10-18T07:31:03.735Z,1024.47
2022-10-18T07:32:02.174Z,1024.41
2022-10-18T07:33:00.640Z,1024.44
2022-10-18T07:34:00.248Z,1024.45
2022-10-18T07:34:59.988Z,1024.43
2022-10-18T07:35:59.744Z,1024.37
2022-10-18T07:37:01.806Z,1024.36
2022-10-18T07:38:01.117Z,1024.31
2022-10-18T07:39:01.109Z,1024.3
2022-10-18T07:40:01.133Z,1024.3
2022-10-18T07:41:01.497Z,1024.26
2022-10-18T07:42:02.317Z,1024.25
2022-10-18T07:43:04.534Z,1024.18
2022-10-18T07:44:01.124Z,1024.24
2022-10-18T07:45:01.243Z,1024.21
2022-10-18T07:46:01.167Z,1024.24
2022-10-18T07:47:01.156Z,1024.19
2022-10-18T07:48:01.186Z,1024.21
2022-10-18T07:49:01.187Z,1024.24
2022-10-18T07:50:01.418Z,1024.21
2022-10-18T07:51:01.178Z,1024.26
2022-10-18T07:52:01.082Z,1024.24
2022-10-18T07:53:01.080Z,1024.21
2022-10-18T07:54:00.478Z,1024.21
2022-10-18T07:55:00.133Z,1024.2
2022-10-18T07:56:00.765Z,1024.24
2022-10-18T07:57:01.436Z,1024.14
2022-10-18T07:58:01.453Z,1024.17
2022-10-18T07:59:02.140Z,1024.25
2022-10-18T08:00:02.179Z,1024.22
2022-10-18T08:01:01.952Z,1024.23
2022-10-18T08:02:02.625Z,1024.22
2022-10-18T08:03:01.187Z,1024.2
2022-10-18T08:04:06.996Z,1024.15
2022-10-18T08:05:01.056Z,1024.18
2022-10-18T08:06:01.462Z,1024.16
2022-10-18T08:07:01.075Z,1024.15
2022-10-18T08:08:04.274Z,1024.14
2022-10-18T08:09:01.084Z,1024.12
2022-10-18T08:10:01.125Z,1024.13
2022-10-18T08:11:01.060Z,1024.18
2022-10-18T08:12:01.148Z,1024.11
2022-10-18T08:13:01.126Z,1024.07
2022-10-18T08:14:01.377Z,1024.02
2022-10-18T08:15:01.244Z,1023.99
2022-10-18T08:16:01.152Z,1023.93
2022-10-18T08:17:01.130Z,1024
2022-10-18T08:18:01.148Z,1023.94
2022-10-18T08:19:01.273Z,1023.94
2022-10-18T08:20:11.658Z,1023.97
2022-10-18T08:21:01.869Z,1023.96
2022-10-18T08:22:01.774Z,1023.95
2022-10-18T08:23:01.071Z,1023.98
2022-10-18T08:24:01.043Z,1023.97
2022-10-18T08:25:01.084Z,1023.97
2022-10-18T08:26:01.263Z,1023.94
2022-10-18T08:27:01.295Z,1023.92
2022-10-18T08:28:01.972Z,1023.94
2022-10-18T08:29:21.201Z,1023.86
2022-10-18T08:30:01.210Z,1023.84
2022-10-18T08:31:04.055Z,1023.84
2022-10-18T08:32:01.150Z,1023.79
2022-10-18T08:33:01.146Z,1023.8
2022-10-18T08:34:01.147Z,1023.81
2022-10-18T08:35:02.311Z,1023.77
2022-10-18T08:36:06.589Z,1023.75
2022-10-18T08:37:02.106Z,1023.78
2022-10-18T08:38:01.310Z,1023.81
2022-10-18T08:39:01.754Z,1023.79
2022-10-18T08:40:02.615Z,1023.76
2022-10-18T08:41:09.787Z,1023.78
2022-10-18T08:42:01.090Z,1023.7
2022-10-18T08:43:00.684Z,1023.75
2022-10-18T08:44:02.236Z,1023.76
2022-10-18T08:45:08.301Z,1023.75
2022-10-18T08:46:12.664Z,1023.73
2022-10-18T08:47:02.598Z,1023.73
2022-10-18T08:48:01.334Z,1023.74
2022-10-18T08:49:01.152Z,1023.69
2022-10-18T08:50:01.158Z,1023.65
2022-10-18T08:51:15.748Z,1023.62
2022-10-18T08:52:01.198Z,1023.63
2022-10-18T08:53:01.451Z,1023.62
2022-10-18T08:54:01.072Z,1023.64
2022-10-18T08:55:01.086Z,1023.64
2022-10-18T08:56:01.087Z,1023.68
2022-10-18T08:57:01.054Z,1023.64
2022-10-18T08:58:01.089Z,1023.66
2022-10-18T08:59:01.111Z,1023.66
2022-10-18T09:00:01.315Z,1023.59
2022-10-18T09:01:01.109Z,1023.61
2022-10-18T09:02:01.499Z,1023.6
2022-10-18T09:03:01.197Z,1023.58
2022-10-18T09:04:02.047Z,1023.62
2022-10-18T09:05:01.682Z,1023.61
2022-10-18T09:06:01.174Z,1023.64
2022-10-18T09:07:01.165Z,1023.68
2022-10-18T09:08:00.847Z,1023.69
2022-10-18T09:09:00.451Z,1023.77
2022-10-18T09:10:00.042Z,1023.73
2022-10-18T09:10:59.788Z,1023.73
2022-10-18T09:12:02.203Z,1023.74
2022-10-18T09:13:01.779Z,1023.76
2022-10-18T09:14:02.104Z,1023.76
2022-10-18T09:15:01.468Z,1023.78
2022-10-18T09:16:01.098Z,1023.74
2022-10-18T09:17:01.042Z,1023.72
2022-10-18T09:18:01.115Z,1023.72
2022-10-18T09:19:01.127Z,1023.67
2022-10-18T09:20:01.221Z,1023.73
2022-10-18T09:21:01.238Z,1023.74
2022-10-18T09:22:03.090Z,1023.81
2022-10-18T09:23:01.151Z,1023.85
2022-10-18T09:24:01.053Z,1023.83
2022-10-18T09:25:01.061Z,1023.91
2022-10-18T09:26:01.090Z,1023.91
2022-10-18T09:27:01.082Z,1023.92
2022-10-18T09:28:00.716Z,1023.98
2022-10-18T09:29:00.633Z,1024.07
2022-10-18T09:30:00.403Z,1024.1
2022-10-18T09:31:00.205Z,1024.09
2022-10-18T09:31:59.862Z,1024.14
2022-10-18T09:33:03.161Z,1024.14
2022-10-18T09:34:01.536Z,1024.04
2022-10-18T09:35:01.121Z,1023.98
2022-10-18T09:36:01.179Z,1023.92
2022-10-18T09:37:01.204Z,1023.83
2022-10-18T09:38:01.529Z,1023.84
2022-10-18T09:39:01.536Z,1023.83
2022-10-18T09:40:01.117Z,1023.85
2022-10-18T09:41:01.101Z,1023.88
2022-10-18T09:42:01.097Z,1023.93
2022-10-18T09:43:01.090Z,1023.96
2022-10-18T09:44:01.091Z,1023.95
2022-10-18T09:45:01.098Z,1024.04
2022-10-18T09:46:01.120Z,1024
2022-10-18T09:47:01.468Z,1024.01
2022-10-18T09:48:00.790Z,1024
2022-10-18T09:49:01.116Z,1023.97
2022-10-18T09:50:01.166Z,1023.97
2022-10-18T09:51:01.140Z,1023.92
2022-10-18T09:52:01.189Z,1023.97
2022-10-18T09:53:01.139Z,1023.96
2022-10-18T09:54:01.151Z,1023.98
2022-10-18T09:55:01.259Z,1023.98
2022-10-18T09:56:01.140Z,1024
2022-10-18T09:57:01.211Z,1023.96
2022-10-18T09:58:01.079Z,1024.02
2022-10-18T09:59:01.258Z,1023.99
2022-10-18T10:00:01.823Z,1023.94
2022-10-18T10:01:02.045Z,1023.89
2022-10-18T10:02:01.170Z,1023.93
2022-10-18T10:03:01.187Z,1023.83
2022-10-18T10:04:01.823Z,1023.8
2022-10-18T10:05:01.332Z,1023.85
2022-10-18T10:06:00.707Z,1023.8
2022-10-18T10:07:00.319Z,1023.85
2022-10-18T10:08:00.118Z,1023.88
2022-10-18T10:08:59.804Z,1023.86
2022-10-18T10:10:01.450Z,1023.89
2022-10-18T10:11:01.056Z,1023.88
2022-10-18T10:12:01.055Z,1023.84
2022-10-18T10:13:01.461Z,1023.82
2022-10-18T10:14:01.199Z,1023.81
2022-10-18T10:15:01.084Z,1023.8
2022-10-18T10:16:01.115Z,1023.85
2022-10-18T10:17:04.362Z,1023.85
2022-10-18T10:18:01.097Z,1023.86
2022-10-18T10:19:01.154Z,1023.94
2022-10-18T10:20:01.136Z,1023.95
2022-10-18T10:21:01.449Z,1024.01
2022-10-18T10:22:07.005Z,1024.01
2022-10-18T10:23:02.041Z,1024.01
2022-10-18T10:24:01.133Z,1023.97
2022-10-18T10:25:01.138Z,1023.94
2022-10-18T10:26:01.365Z,1023.89
2022-10-18T10:27:09.168Z,1023.81
2022-10-18T10:28:01.078Z,1023.77
2022-10-18T10:29:01.150Z,1023.7
2022-10-18T10:30:04.338Z,1023.71
2022-10-18T10:31:01.191Z,1023.74
2022-10-18T10:32:11.461Z,1023.86
2022-10-18T10:33:00.479Z,1023.87
2022-10-18T10:34:00.080Z,1023.88
2022-10-18T10:34:59.672Z,1023.9
2022-10-18T10:36:01.305Z,1023.88
2022-10-18T10:37:13.838Z,1023.86
2022-10-18T10:38:01.133Z,1023.82
2022-10-18T10:39:01.157Z,1023.83
2022-10-18T10:40:17.887Z,1023.83
2022-10-18T10:41:02.053Z,1023.84
2022-10-18T10:42:16.689Z,1023.89
2022-10-18T10:43:12.993Z,1023.92
2022-10-18T10:44:01.738Z,1023.98
2022-10-18T10:45:01.387Z,1024.02
2022-10-18T10:46:01.077Z,1024.07
2022-10-18T10:47:01.088Z,1024.07
2022-10-18T10:48:00.957Z,1024.11
2022-10-18T10:49:27.928Z,1024.12
2022-10-18T10:50:02.074Z,1024.1
2022-10-18T10:51:01.181Z,1024.1
2022-10-18T10:52:08.950Z,1024.05
2022-10-18T10:53:01.263Z,1024.01
2022-10-18T10:54:01.890Z,1023.97
2022-10-18T10:55:34.777Z,1023.92
2022-10-18T10:56:01.150Z,1023.91
2022-10-18T10:57:01.148Z,1023.85
2022-10-18T10:58:01.151Z,1023.8
2022-10-18T10:59:01.181Z,1023.86
2022-10-18T11:00:01.088Z,1023.93
2022-10-18T11:01:01.085Z,1024.06
2022-10-18T11:02:01.114Z,1024.16
2022-10-18T11:03:10.901Z,1024.21
2022-10-18T11:04:01.207Z,1024.19
2022-10-18T11:05:01.091Z,1024.26
2022-10-18T11:06:01.272Z,1024.23
2022-10-18T11:07:02.024Z,1024.17
2022-10-18T11:08:02.142Z,1024.1
2022-10-18T11:09:01.143Z,1024.04
2022-10-18T11:10:01.639Z,1023.99
2022-10-18T11:11:01.525Z,1023.95
2022-10-18T11:12:01.270Z,1023.9
2022-10-18T11:13:01.247Z,1023.91
2022-10-18T11:14:21.182Z,1023.86
2022-10-18T11:15:01.065Z,1023.87
2022-10-18T11:16:01.165Z,1023.86
2022-10-18T11:17:03.150Z,1023.9
2022-10-18T11:18:01.094Z,1023.88
2022-10-18T11:19:01.093Z,1023.81
2022-10-18T11:20:01.112Z,1023.85
2022-10-18T11:21:01.408Z,1023.77
2022-10-18T11:22:02.113Z,1023.71
2022-10-18T11:23:02.236Z,1023.77
2022-10-18T11:24:01.241Z,1023.75
2022-10-18T11:25:01.115Z,1023.69
2022-10-18T11:26:01.147Z,1023.69
2022-10-18T11:27:01.136Z,1023.65
2022-10-18T11:28:00.843Z,1023.63
2022-10-18T11:29:01.495Z,1023.64
2022-10-18T11:30:01.453Z,1023.66
2022-10-18T11:31:01.224Z,1023.67
2022-10-18T11:32:01.073Z,1023.58
2022-10-18T11:33:01.107Z,1023.62
2022-10-18T11:34:09.352Z,1023.57
2022-10-18T11:35:01.132Z,1023.56
2022-10-18T11:36:03.802Z,1023.56
2022-10-18T11:37:26.665Z,1023.66
2022-10-18T11:38:00.687Z,1023.63
2022-10-18T11:39:00.307Z,1023.59
2022-10-18T11:39:59.902Z,1023.64
2022-10-18T11:40:59.570Z,1023.65
2022-10-18T11:42:01.144Z,1023.62
2022-10-18T11:43:01.135Z,1023.63
2022-10-18T11:44:03.059Z,1023.61
2022-10-18T11:45:01.083Z,1023.62
2022-10-18T11:46:01.058Z,1023.7
2022-10-18T11:47:01.063Z,1023.63
2022-10-18T11:48:00.703Z,1023.65
2022-10-18T11:49:00.605Z,1023.69
2022-10-18T11:50:00.169Z,1023.71
2022-10-18T11:50:59.740Z,1023.71
2022-10-18T11:52:08.293Z,1023.7
2022-10-18T11:53:01.811Z,1023.68
2022-10-18T11:54:01.850Z,1023.69
2022-10-18T11:55:01.406Z,1023.63
2022-10-18T11:56:02.024Z,1024.3
2022-10-18T11:57:00.772Z,1023.69
2022-10-18T11:58:00.412Z,1023.68
2022-10-18T11:59:00.112Z,1023.7
2022-10-18T11:59:59.908Z,1023.73
2022-10-18T12:00:59.718Z,1023.68
2022-10-18T12:02:01.440Z,1023.72
2022-10-18T12:03:02.662Z,1023.72
2022-10-18T12:04:01.082Z,1023.69
2022-10-18T12:06:01.125Z,1023.69
2022-10-18T12:07:01.099Z,1023.64
2022-10-18T12:08:04.733Z,1023.57
2022-10-18T12:09:01.137Z,1023.63
2022-10-18T12:10:01.516Z,1023.58
2022-10-18T12:11:05.875Z,1023.58
2022-10-18T12:12:01.144Z,1023.6